sensor_id;sensor_type;location;lat;lon;timestamp;P1;durP1;ratioP1;P2;durP2;ratioP2
46507;SDS011;32223;53.654;10.014;2023-02-15T00:01:20;111.82;;;36.03;;
46507;SDS011;32223;53.654;10.014;2023-02-15T00:03:47;90.20;;;35.08;;
46507;SDS011;32223;53.654;10.014;2023-02-15T00:06:14;101.43;;;35.92;;
46507;SDS011;32223;53.654;10.014;2023-02-15T00:08:39;97.30;;;34.85;;
46507;SDS011;32223;53.654;10.014;2023-02-15T00:11:09;122.03;;;39.00;;
46507;SDS011;32223;53.654;10.014;2023-02-15T00:13:36;104.72;;;38.55;;
46507;SDS011;32223;53.654;10.014;2023-02-15T00:16:04;116.85;;;36.08;;
46507;SDS011;32223;53.654;10.014;2023-02-15T00:18:32;145.70;;;40.78;;
46507;SDS011;32223;53.654;10.014;2023-02-15T00:20:58;95.75;;;34.95;;
46507;SDS011;32223;53.654;10.014;2023-02-15T00:23:27;108.10;;;34.78;;
46507;SDS011;32223;53.654;10.014;2023-02-15T00:26:02;102.90;;;37.33;;
46507;SDS011;32223;53.654;10.014;2023-02-15T00:28:32;105.28;;;37.83;;
46507;SDS011;32223;53.654;10.014;2023-02-15T00:31:08;97.68;;;36.55;;
46507;SDS011;32223;53.654;10.014;2023-02-15T00:33:36;137.23;;;39.40;;
46507;SDS011;32223;53.654;10.014;2023-02-15T00:36:03;132.95;;;39.90;;
46507;SDS011;32223;53.654;10.014;2023-02-15T00:38:30;107.13;;;34.53;;
46507;SDS011;32223;53.654;10.014;2023-02-15T00:40:57;114.32;;;39.90;;
46507;SDS011;32223;53.654;10.014;2023-02-15T00:43:24;120.70;;;37.72;;
46507;SDS011;32223;53.654;10.014;2023-02-15T00:45:51;133.90;;;40.92;;
46507;SDS011;32223;53.654;10.014;2023-02-15T00:48:17;125.75;;;38.60;;
46507;SDS011;32223;53.654;10.014;2023-02-15T00:50:47;127.55;;;41.33;;
46507;SDS011;32223;53.654;10.014;2023-02-15T00:53:14;146.30;;;40.25;;
46507;SDS011;32223;53.654;10.014;2023-02-15T00:55:41;126.30;;;38.33;;
46507;SDS011;32223;53.654;10.014;2023-02-15T00:58:07;112.18;;;40.83;;
46507;SDS011;32223;53.654;10.014;2023-02-15T01:00:34;210.35;;;45.72;;
46507;SDS011;32223;53.654;10.014;2023-02-15T01:03:00;177.82;;;42.45;;
46507;SDS011;32223;53.654;10.014;2023-02-15T01:05:26;120.10;;;39.13;;
46507;SDS011;32223;53.654;10.014;2023-02-15T01:07:51;134.65;;;40.50;;
46507;SDS011;32223;53.654;10.014;2023-02-15T01:10:17;150.38;;;42.83;;
46507;SDS011;32223;53.654;10.014;2023-02-15T01:12:43;165.10;;;40.00;;
46507;SDS011;32223;53.654;10.014;2023-02-15T01:15:09;151.20;;;41.92;;
46507;SDS011;32223;53.654;10.014;2023-02-15T01:17:34;125.68;;;39.47;;
46507;SDS011;32223;53.654;10.014;2023-02-15T01:20:00;203.15;;;43.63;;
46507;SDS011;32223;53.654;10.014;2023-02-15T01:22:26;119.07;;;36.35;;
46507;SDS011;32223;53.654;10.014;2023-02-15T01:24:52;110.60;;;37.97;;
46507;SDS011;32223;53.654;10.014;2023-02-15T01:27:17;125.68;;;36.47;;
46507;SDS011;32223;53.654;10.014;2023-02-15T01:29:43;130.85;;;35.70;;
46507;SDS011;32223;53.654;10.014;2023-02-15T01:32:09;100.45;;;37.13;;
46507;SDS011;32223;53.654;10.014;2023-02-15T01:34:34;228.93;;;43.35;;
46507;SDS011;32223;53.654;10.014;2023-02-15T01:37:00;143.98;;;40.03;;
46507;SDS011;32223;53.654;10.014;2023-02-15T01:39:26;152.75;;;39.83;;
46507;SDS011;32223;53.654;10.014;2023-02-15T01:41:51;157.80;;;41.92;;
46507;SDS011;32223;53.654;10.014;2023-02-15T01:47:08;171.15;;;39.42;;
46507;SDS011;32223;53.654;10.014;2023-02-15T01:49:39;104.82;;;35.67;;
46507;SDS011;32223;53.654;10.014;2023-02-15T01:52:07;110.07;;;38.50;;
46507;SDS011;32223;53.654;10.014;2023-02-15T01:54:35;123.88;;;34.78;;
46507;SDS011;32223;53.654;10.014;2023-02-15T01:57:13;111.85;;;35.47;;
46507;SDS011;32223;53.654;10.014;2023-02-15T01:59:43;136.68;;;33.50;;
46507;SDS011;32223;53.654;10.014;2023-02-15T02:02:13;112.07;;;32.83;;
46507;SDS011;32223;53.654;10.014;2023-02-15T02:04:50;85.00;;;33.45;;
46507;SDS011;32223;53.654;10.014;2023-02-15T02:07:17;108.70;;;32.35;;
46507;SDS011;32223;53.654;10.014;2023-02-15T02:09:45;81.28;;;33.47;;
46507;SDS011;32223;53.654;10.014;2023-02-15T02:12:12;105.68;;;35.08;;
46507;SDS011;32223;53.654;10.014;2023-02-15T02:14:39;144.93;;;36.83;;
46507;SDS011;32223;53.654;10.014;2023-02-15T02:19:54;136.02;;;39.42;;
46507;SDS011;32223;53.654;10.014;2023-02-15T02:34:05;98.88;;;37.30;;
46507;SDS011;32223;53.654;10.014;2023-02-15T02:39:36;94.45;;;33.92;;
46507;SDS011;32223;53.654;10.014;2023-02-15T02:49:39;124.85;;;35.25;;
46507;SDS011;32223;53.654;10.014;2023-02-15T02:55:28;118.47;;;32.85;;
46507;SDS011;32223;53.654;10.014;2023-02-15T02:57:54;92.82;;;30.98;;
46507;SDS011;32223;53.654;10.014;2023-02-15T03:00:21;127.13;;;35.60;;
46507;SDS011;32223;53.654;10.014;2023-02-15T03:02:51;116.25;;;36.58;;
46507;SDS011;32223;53.654;10.014;2023-02-15T03:05:23;131.32;;;38.25;;
46507;SDS011;32223;53.654;10.014;2023-02-15T03:07:52;137.30;;;38.53;;
46507;SDS011;32223;53.654;10.014;2023-02-15T03:10:22;151.40;;;36.00;;
46507;SDS011;32223;53.654;10.014;2023-02-15T03:12:49;123.28;;;37.95;;
46507;SDS011;32223;53.654;10.014;2023-02-15T03:15:23;157.75;;;39.30;;
46507;SDS011;32223;53.654;10.014;2023-02-15T03:17:53;127.18;;;38.13;;
46507;SDS011;32223;53.654;10.014;2023-02-15T03:20:27;172.13;;;39.47;;
46507;SDS011;32223;53.654;10.014;2023-02-15T03:22:58;152.63;;;38.15;;
46507;SDS011;32223;53.654;10.014;2023-02-15T03:25:29;142.55;;;35.13;;
46507;SDS011;32223;53.654;10.014;2023-02-15T03:28:03;128.40;;;39.77;;
46507;SDS011;32223;53.654;10.014;2023-02-15T03:30:32;96.40;;;35.60;;
46507;SDS011;32223;53.654;10.014;2023-02-15T03:33:00;174.48;;;38.25;;
46507;SDS011;32223;53.654;10.014;2023-02-15T03:35:31;100.22;;;35.88;;
46507;SDS011;32223;53.654;10.014;2023-02-15T03:38:03;109.53;;;36.38;;
46507;SDS011;32223;53.654;10.014;2023-02-15T03:40:34;91.63;;;34.70;;
46507;SDS011;32223;53.654;10.014;2023-02-15T03:43:30;128.43;;;35.15;;
46507;SDS011;32223;53.654;10.014;2023-02-15T03:46:06;129.20;;;34.38;;
46507;SDS011;32223;53.654;10.014;2023-02-15T03:48:43;127.25;;;33.97;;
46507;SDS011;32223;53.654;10.014;2023-02-15T03:54:03;135.48;;;34.92;;
46507;SDS011;32223;53.654;10.014;2023-02-15T03:56:35;100.72;;;32.78;;
46507;SDS011;32223;53.654;10.014;2023-02-15T03:59:03;103.10;;;34.05;;
46507;SDS011;32223;53.654;10.014;2023-02-15T04:01:56;105.63;;;32.87;;
46507;SDS011;32223;53.654;10.014;2023-02-15T04:04:47;100.07;;;30.23;;
46507;SDS011;32223;53.654;10.014;2023-02-15T04:07:13;159.02;;;38.70;;
46507;SDS011;32223;53.654;10.014;2023-02-15T04:09:39;133.13;;;33.53;;
46507;SDS011;32223;53.654;10.014;2023-02-15T04:12:23;100.78;;;34.38;;
46507;SDS011;32223;53.654;10.014;2023-02-15T04:14:49;115.90;;;33.38;;
46507;SDS011;32223;53.654;10.014;2023-02-15T04:17:33;107.85;;;34.90;;
46507;SDS011;32223;53.654;10.014;2023-02-15T04:20:00;83.75;;;32.40;;
46507;SDS011;32223;53.654;10.014;2023-02-15T04:22:44;101.20;;;31.75;;
46507;SDS011;32223;53.654;10.014;2023-02-15T04:25:28;98.70;;;31.73;;
46507;SDS011;32223;53.654;10.014;2023-02-15T04:27:54;88.70;;;33.15;;
46507;SDS011;32223;53.654;10.014;2023-02-15T04:30:21;160.25;;;34.92;;
46507;SDS011;32223;53.654;10.014;2023-02-15T04:32:49;110.25;;;34.90;;
46507;SDS011;32223;53.654;10.014;2023-02-15T04:35:15;86.13;;;30.70;;
46507;SDS011;32223;53.654;10.014;2023-02-15T04:37:41;127.93;;;41.20;;
46507;SDS011;32223;53.654;10.014;2023-02-15T04:40:07;101.28;;;33.70;;
46507;SDS011;32223;53.654;10.014;2023-02-15T04:42:34;86.20;;;30.20;;
46507;SDS011;32223;53.654;10.014;2023-02-15T04:45:00;73.03;;;30.63;;
46507;SDS011;32223;53.654;10.014;2023-02-15T04:47:26;153.90;;;35.13;;
46507;SDS011;32223;53.654;10.014;2023-02-15T04:49:52;108.93;;;32.13;;
46507;SDS011;32223;53.654;10.014;2023-02-15T04:52:17;96.82;;;32.13;;
46507;SDS011;32223;53.654;10.014;2023-02-15T04:54:43;76.78;;;29.75;;
46507;SDS011;32223;53.654;10.014;2023-02-15T04:57:09;81.43;;;33.30;;
46507;SDS011;32223;53.654;10.014;2023-02-15T04:59:35;79.93;;;31.75;;
46507;SDS011;32223;53.654;10.014;2023-02-15T05:02:01;81.88;;;29.13;;
46507;SDS011;32223;53.654;10.014;2023-02-15T05:04:26;68.38;;;25.27;;
46507;SDS011;32223;53.654;10.014;2023-02-15T05:06:52;99.22;;;29.92;;
46507;SDS011;32223;53.654;10.014;2023-02-15T05:09:18;86.32;;;30.67;;
46507;SDS011;32223;53.654;10.014;2023-02-15T05:11:43;68.00;;;29.83;;
46507;SDS011;32223;53.654;10.014;2023-02-15T05:14:09;69.70;;;28.13;;
46507;SDS011;32223;53.654;10.014;2023-02-15T05:16:34;94.78;;;28.13;;
46507;SDS011;32223;53.654;10.014;2023-02-15T05:19:00;58.83;;;26.77;;
46507;SDS011;32223;53.654;10.014;2023-02-15T05:21:26;72.57;;;28.75;;
46507;SDS011;32223;53.654;10.014;2023-02-15T05:23:51;90.90;;;26.88;;
46507;SDS011;32223;53.654;10.014;2023-02-15T05:26:21;80.30;;;26.80;;
46507;SDS011;32223;53.654;10.014;2023-02-15T05:29:07;105.25;;;30.08;;
46507;SDS011;32223;53.654;10.014;2023-02-15T05:31:33;98.90;;;30.25;;
46507;SDS011;32223;53.654;10.014;2023-02-15T05:33:59;99.97;;;31.38;;
46507;SDS011;32223;53.654;10.014;2023-02-15T05:36:25;88.22;;;27.92;;
46507;SDS011;32223;53.654;10.014;2023-02-15T05:38:51;96.32;;;29.35;;
46507;SDS011;32223;53.654;10.014;2023-02-15T05:41:16;76.72;;;30.48;;
46507;SDS011;32223;53.654;10.014;2023-02-15T05:43:42;89.47;;;31.73;;
46507;SDS011;32223;53.654;10.014;2023-02-15T05:46:08;99.03;;;29.45;;
46507;SDS011;32223;53.654;10.014;2023-02-15T05:48:34;92.05;;;29.20;;
46507;SDS011;32223;53.654;10.014;2023-02-15T05:51:04;111.43;;;33.03;;
46507;SDS011;32223;53.654;10.014;2023-02-15T05:53:33;73.68;;;30.80;;
46507;SDS011;32223;53.654;10.014;2023-02-15T05:56:00;94.32;;;29.35;;
46507;SDS011;32223;53.654;10.014;2023-02-15T05:58:27;138.52;;;33.20;;
46507;SDS011;32223;53.654;10.014;2023-02-15T06:00:55;71.47;;;28.83;;
46507;SDS011;32223;53.654;10.014;2023-02-15T06:03:21;94.30;;;30.35;;
46507;SDS011;32223;53.654;10.014;2023-02-15T06:05:47;88.07;;;27.92;;
46507;SDS011;32223;53.654;10.014;2023-02-15T06:08:13;97.68;;;27.60;;
46507;SDS011;32223;53.654;10.014;2023-02-15T06:10:39;87.38;;;29.05;;
46507;SDS011;32223;53.654;10.014;2023-02-15T06:13:05;90.88;;;27.60;;
46507;SDS011;32223;53.654;10.014;2023-02-15T06:15:31;108.35;;;28.58;;
46507;SDS011;32223;53.654;10.014;2023-02-15T06:17:57;73.95;;;27.20;;
46507;SDS011;32223;53.654;10.014;2023-02-15T06:20:22;94.65;;;25.55;;
46507;SDS011;32223;53.654;10.014;2023-02-15T06:22:48;84.05;;;26.10;;
46507;SDS011;32223;53.654;10.014;2023-02-15T06:25:14;86.18;;;27.20;;
46507;SDS011;32223;53.654;10.014;2023-02-15T06:27:42;87.80;;;27.77;;
46507;SDS011;32223;53.654;10.014;2023-02-15T06:30:08;67.18;;;25.73;;
46507;SDS011;32223;53.654;10.014;2023-02-15T06:32:35;93.07;;;27.63;;
46507;SDS011;32223;53.654;10.014;2023-02-15T06:35:01;76.25;;;26.77;;
46507;SDS011;32223;53.654;10.014;2023-02-15T06:37:27;68.68;;;27.02;;
46507;SDS011;32223;53.654;10.014;2023-02-15T06:39:52;77.15;;;26.05;;
46507;SDS011;32223;53.654;10.014;2023-02-15T06:42:18;63.58;;;25.35;;
46507;SDS011;32223;53.654;10.014;2023-02-15T06:44:44;82.93;;;27.30;;
46507;SDS011;32223;53.654;10.014;2023-02-15T06:47:10;145.57;;;31.27;;
46507;SDS011;32223;53.654;10.014;2023-02-15T06:49:36;108.32;;;31.30;;
46507;SDS011;32223;53.654;10.014;2023-02-15T06:52:02;78.10;;;27.45;;
46507;SDS011;32223;53.654;10.014;2023-02-15T06:54:28;112.35;;;28.17;;
46507;SDS011;32223;53.654;10.014;2023-02-15T06:56:54;70.78;;;27.48;;
46507;SDS011;32223;53.654;10.014;2023-02-15T06:59:19;89.68;;;27.52;;
46507;SDS011;32223;53.654;10.014;2023-02-15T07:01:45;80.60;;;29.13;;
46507;SDS011;32223;53.654;10.014;2023-02-15T07:04:10;98.78;;;27.45;;
46507;SDS011;32223;53.654;10.014;2023-02-15T07:06:36;108.13;;;26.88;;
46507;SDS011;32223;53.654;10.014;2023-02-15T07:09:02;108.68;;;28.92;;
46507;SDS011;32223;53.654;10.014;2023-02-15T07:11:27;154.98;;;38.20;;
46507;SDS011;32223;53.654;10.014;2023-02-15T07:14:11;70.82;;;26.30;;
46507;SDS011;32223;53.654;10.014;2023-02-15T07:16:37;71.45;;;25.83;;
46507;SDS011;32223;53.654;10.014;2023-02-15T07:19:03;80.35;;;26.83;;
46507;SDS011;32223;53.654;10.014;2023-02-15T07:21:29;81.90;;;27.20;;
46507;SDS011;32223;53.654;10.014;2023-02-15T07:23:58;88.53;;;27.98;;
46507;SDS011;32223;53.654;10.014;2023-02-15T07:26:23;78.22;;;25.80;;
46507;SDS011;32223;53.654;10.014;2023-02-15T07:28:49;80.22;;;26.08;;
46507;SDS011;32223;53.654;10.014;2023-02-15T07:31:15;109.18;;;29.25;;
46507;SDS011;32223;53.654;10.014;2023-02-15T07:33:41;150.90;;;29.63;;
46507;SDS011;32223;53.654;10.014;2023-02-15T07:36:06;88.88;;;27.67;;
46507;SDS011;32223;53.654;10.014;2023-02-15T07:38:35;89.55;;;26.55;;
46507;SDS011;32223;53.654;10.014;2023-02-15T07:41:06;82.95;;;25.70;;
46507;SDS011;32223;53.654;10.014;2023-02-15T07:43:34;200.40;;;35.95;;
46507;SDS011;32223;53.654;10.014;2023-02-15T07:46:02;81.50;;;25.38;;
46507;SDS011;32223;53.654;10.014;2023-02-15T07:48:29;86.45;;;26.42;;
46507;SDS011;32223;53.654;10.014;2023-02-15T07:50:58;88.13;;;27.20;;
46507;SDS011;32223;53.654;10.014;2023-02-15T07:53:28;86.47;;;26.27;;
46507;SDS011;32223;53.654;10.014;2023-02-15T07:55:54;75.80;;;25.13;;
46507;SDS011;32223;53.654;10.014;2023-02-15T07:58:22;88.28;;;26.45;;
46507;SDS011;32223;53.654;10.014;2023-02-15T08:01:08;83.63;;;25.83;;
46507;SDS011;32223;53.654;10.014;2023-02-15T08:03:33;73.50;;;26.90;;
46507;SDS011;32223;53.654;10.014;2023-02-15T08:05:59;69.22;;;28.02;;
46507;SDS011;32223;53.654;10.014;2023-02-15T08:08:25;81.18;;;26.88;;
46507;SDS011;32223;53.654;10.014;2023-02-15T08:13:46;75.18;;;26.95;;
46507;SDS011;32223;53.654;10.014;2023-02-15T08:16:19;77.07;;;25.70;;
46507;SDS011;32223;53.654;10.014;2023-02-15T08:18:51;98.38;;;27.95;;
46507;SDS011;32223;53.654;10.014;2023-02-15T08:21:17;80.60;;;28.23;;
46507;SDS011;32223;53.654;10.014;2023-02-15T08:23:43;66.13;;;27.65;;
46507;SDS011;32223;53.654;10.014;2023-02-15T08:26:09;81.90;;;28.60;;
46507;SDS011;32223;53.654;10.014;2023-02-15T08:28:35;71.28;;;27.77;;
46507;SDS011;32223;53.654;10.014;2023-02-15T08:31:07;78.75;;;27.80;;
46507;SDS011;32223;53.654;10.014;2023-02-15T08:33:34;85.13;;;29.02;;
46507;SDS011;32223;53.654;10.014;2023-02-15T08:36:05;67.70;;;25.65;;
46507;SDS011;32223;53.654;10.014;2023-02-15T08:38:32;79.78;;;26.75;;
46507;SDS011;32223;53.654;10.014;2023-02-15T08:41:08;60.20;;;25.83;;
46507;SDS011;32223;53.654;10.014;2023-02-15T08:43:37;80.10;;;27.67;;
46507;SDS011;32223;53.654;10.014;2023-02-15T08:46:04;71.47;;;27.17;;
46507;SDS011;32223;53.654;10.014;2023-02-15T08:48:30;59.88;;;24.83;;
46507;SDS011;32223;53.654;10.014;2023-02-15T08:50:55;59.33;;;27.13;;
46507;SDS011;32223;53.654;10.014;2023-02-15T08:53:21;104.90;;;28.92;;
46507;SDS011;32223;53.654;10.014;2023-02-15T08:55:47;79.00;;;27.85;;
46507;SDS011;32223;53.654;10.014;2023-02-15T08:58:20;62.58;;;27.55;;
46507;SDS011;32223;53.654;10.014;2023-02-15T09:00:46;73.68;;;28.63;;
46507;SDS011;32223;53.654;10.014;2023-02-15T09:03:12;69.22;;;28.17;;
46507;SDS011;32223;53.654;10.014;2023-02-15T09:05:37;75.35;;;26.58;;
46507;SDS011;32223;53.654;10.014;2023-02-15T09:08:03;78.47;;;27.50;;
46507;SDS011;32223;53.654;10.014;2023-02-15T09:10:29;76.63;;;27.90;;
46507;SDS011;32223;53.654;10.014;2023-02-15T09:12:54;65.63;;;28.23;;
46507;SDS011;32223;53.654;10.014;2023-02-15T09:15:20;67.60;;;29.27;;
46507;SDS011;32223;53.654;10.014;2023-02-15T09:17:46;82.00;;;29.48;;
46507;SDS011;32223;53.654;10.014;2023-02-15T09:20:11;73.45;;;25.73;;
46507;SDS011;32223;53.654;10.014;2023-02-15T09:22:37;62.63;;;26.20;;
46507;SDS011;32223;53.654;10.014;2023-02-15T09:25:02;76.35;;;27.23;;
46507;SDS011;32223;53.654;10.014;2023-02-15T09:27:29;65.78;;;27.08;;
46507;SDS011;32223;53.654;10.014;2023-02-15T09:29:55;80.00;;;26.23;;
46507;SDS011;32223;53.654;10.014;2023-02-15T09:32:20;67.97;;;27.88;;
46507;SDS011;32223;53.654;10.014;2023-02-15T09:34:47;70.63;;;28.90;;
46507;SDS011;32223;53.654;10.014;2023-02-15T09:37:13;74.72;;;29.50;;
46507;SDS011;32223;53.654;10.014;2023-02-15T09:39:39;60.95;;;25.55;;
46507;SDS011;32223;53.654;10.014;2023-02-15T10:02:01;69.72;;;28.90;;
46507;SDS011;32223;53.654;10.014;2023-02-15T10:18:47;69.30;;;29.08;;
46507;SDS011;32223;53.654;10.014;2023-02-15T10:24:12;65.03;;;28.30;;
46507;SDS011;32223;53.654;10.014;2023-02-15T10:26:43;66.28;;;28.80;;
46507;SDS011;32223;53.654;10.014;2023-02-15T10:32:05;59.40;;;28.02;;
46507;SDS011;32223;53.654;10.014;2023-02-15T10:35:04;55.22;;;28.75;;
46507;SDS011;32223;53.654;10.014;2023-02-15T10:46:11;52.67;;;26.33;;
46507;SDS011;32223;53.654;10.014;2023-02-15T11:00:04;49.45;;;26.67;;
46507;SDS011;32223;53.654;10.014;2023-02-15T11:02:52;53.28;;;27.90;;
46507;SDS011;32223;53.654;10.014;2023-02-15T11:05:39;60.13;;;27.27;;
46507;SDS011;32223;53.654;10.014;2023-02-15T11:08:22;51.00;;;25.27;;
46507;SDS011;32223;53.654;10.014;2023-02-15T11:10:59;51.67;;;27.30;;
46507;SDS011;32223;53.654;10.014;2023-02-15T11:13:32;55.15;;;26.15;;
46507;SDS011;32223;53.654;10.014;2023-02-15T11:16:04;47.38;;;27.15;;
46507;SDS011;32223;53.654;10.014;2023-02-15T11:21:13;58.53;;;27.52;;
46507;SDS011;32223;53.654;10.014;2023-02-15T11:23:46;55.97;;;26.85;;
46507;SDS011;32223;53.654;10.014;2023-02-15T11:26:13;60.25;;;28.85;;
46507;SDS011;32223;53.654;10.014;2023-02-15T11:31:44;59.90;;;29.13;;
46507;SDS011;32223;53.654;10.014;2023-02-15T11:34:15;56.25;;;27.73;;
46507;SDS011;32223;53.654;10.014;2023-02-15T11:36:54;59.35;;;28.63;;
46507;SDS011;32223;53.654;10.014;2023-02-15T11:39:23;60.53;;;29.73;;
46507;SDS011;32223;53.654;10.014;2023-02-15T11:41:54;60.08;;;30.98;;
46507;SDS011;32223;53.654;10.014;2023-02-15T11:44:25;61.20;;;31.00;;
46507;SDS011;32223;53.654;10.014;2023-02-15T11:46:56;61.00;;;29.73;;
46507;SDS011;32223;53.654;10.014;2023-02-15T11:51:48;56.03;;;29.13;;
46507;SDS011;32223;53.654;10.014;2023-02-15T11:54:16;62.28;;;30.25;;
46507;SDS011;32223;53.654;10.014;2023-02-15T11:56:44;56.72;;;26.60;;
46507;SDS011;32223;53.654;10.014;2023-02-15T11:59:11;59.50;;;30.40;;
46507;SDS011;32223;53.654;10.014;2023-02-15T12:01:44;55.28;;;30.25;;
46507;SDS011;32223;53.654;10.014;2023-02-15T12:04:22;51.25;;;27.35;;
46507;SDS011;32223;53.654;10.014;2023-02-15T12:07:23;54.40;;;30.52;;
46507;SDS011;32223;53.654;10.014;2023-02-15T12:10:00;49.65;;;29.23;;
46507;SDS011;32223;53.654;10.014;2023-02-15T12:12:42;58.55;;;30.30;;
46507;SDS011;32223;53.654;10.014;2023-02-15T12:15:09;52.90;;;27.60;;
46507;SDS011;32223;53.654;10.014;2023-02-15T12:17:38;50.60;;;27.50;;
46507;SDS011;32223;53.654;10.014;2023-02-15T12:22:49;52.92;;;27.25;;
46507;SDS011;32223;53.654;10.014;2023-02-15T12:25:39;42.85;;;23.73;;
46507;SDS011;32223;53.654;10.014;2023-02-15T12:28:23;50.95;;;25.90;;
46507;SDS011;32223;53.654;10.014;2023-02-15T12:31:01;45.88;;;26.17;;
46507;SDS011;32223;53.654;10.014;2023-02-15T12:33:34;40.92;;;23.40;;
46507;SDS011;32223;53.654;10.014;2023-02-15T12:36:20;39.42;;;22.88;;
46507;SDS011;32223;53.654;10.014;2023-02-15T12:41:38;39.63;;;21.25;;
46507;SDS011;32223;53.654;10.014;2023-02-15T12:44:17;37.50;;;21.35;;
46507;SDS011;32223;53.654;10.014;2023-02-15T12:49:32;37.38;;;21.17;;
46507;SDS011;32223;53.654;10.014;2023-02-15T12:52:00;36.72;;;22.67;;
46507;SDS011;32223;53.654;10.014;2023-02-15T12:54:32;40.55;;;22.35;;
46507;SDS011;32223;53.654;10.014;2023-02-15T13:02:52;38.65;;;22.30;;
46507;SDS011;32223;53.654;10.014;2023-02-15T13:08:16;36.30;;;21.33;;
46507;SDS011;32223;53.654;10.014;2023-02-15T13:11:03;36.03;;;20.73;;
46507;SDS011;32223;53.654;10.014;2023-02-15T13:13:36;36.25;;;21.35;;
46507;SDS011;32223;53.654;10.014;2023-02-15T13:16:15;35.55;;;22.13;;
46507;SDS011;32223;53.654;10.014;2023-02-15T13:18:44;36.25;;;22.08;;
46507;SDS011;32223;53.654;10.014;2023-02-15T13:23:37;35.80;;;20.85;;
46507;SDS011;32223;53.654;10.014;2023-02-15T13:26:10;36.60;;;21.42;;
46507;SDS011;32223;53.654;10.014;2023-02-15T13:28:48;38.25;;;21.83;;
46507;SDS011;32223;53.654;10.014;2023-02-15T13:31:24;36.53;;;21.23;;
46507;SDS011;32223;53.654;10.014;2023-02-15T13:34:09;35.35;;;22.48;;
46507;SDS011;32223;53.654;10.014;2023-02-15T13:37:19;32.58;;;20.92;;
46507;SDS011;32223;53.654;10.014;2023-02-15T13:42:20;36.00;;;21.63;;
46507;SDS011;32223;53.654;10.014;2023-02-15T13:52:38;32.95;;;20.80;;
46507;SDS011;32223;53.654;10.014;2023-02-15T14:00:44;35.65;;;21.75;;
46507;SDS011;32223;53.654;10.014;2023-02-15T14:06:28;32.90;;;20.67;;
46507;SDS011;32223;53.654;10.014;2023-02-15T14:17:39;31.77;;;21.40;;
46507;SDS011;32223;53.654;10.014;2023-02-15T14:25:42;35.13;;;21.05;;
46507;SDS011;32223;53.654;10.014;2023-02-15T14:31:00;36.75;;;23.95;;
46507;SDS011;32223;53.654;10.014;2023-02-15T14:33:31;34.08;;;22.60;;
46507;SDS011;32223;53.654;10.014;2023-02-15T14:36:03;31.80;;;22.63;;
46507;SDS011;32223;53.654;10.014;2023-02-15T14:41:24;31.45;;;21.58;;
46507;SDS011;32223;53.654;10.014;2023-02-15T14:46:58;31.38;;;19.58;;
46507;SDS011;32223;53.654;10.014;2023-02-15T14:49:33;32.28;;;22.67;;
46507;SDS011;32223;53.654;10.014;2023-02-15T15:02:12;30.83;;;20.83;;
46507;SDS011;32223;53.654;10.014;2023-02-15T15:04:41;38.33;;;23.33;;
46507;SDS011;32223;53.654;10.014;2023-02-15T15:20:37;32.85;;;20.35;;
46507;SDS011;32223;53.654;10.014;2023-02-15T15:25:44;36.22;;;20.88;;
46507;SDS011;32223;53.654;10.014;2023-02-15T15:31:07;40.30;;;22.48;;
46507;SDS011;32223;53.654;10.014;2023-02-15T15:44:49;37.10;;;20.98;;
46507;SDS011;32223;53.654;10.014;2023-02-15T15:47:31;37.75;;;22.48;;
46507;SDS011;32223;53.654;10.014;2023-02-15T15:50:18;36.53;;;20.40;;
46507;SDS011;32223;53.654;10.014;2023-02-15T15:52:50;37.45;;;21.33;;
46507;SDS011;32223;53.654;10.014;2023-02-15T15:55:22;33.85;;;20.15;;
46507;SDS011;32223;53.654;10.014;2023-02-15T15:57:51;30.38;;;19.45;;
46507;SDS011;32223;53.654;10.014;2023-02-15T16:02:52;32.40;;;19.08;;
46507;SDS011;32223;53.654;10.014;2023-02-15T16:05:19;32.97;;;21.33;;
46507;SDS011;32223;53.654;10.014;2023-02-15T16:07:44;32.25;;;19.20;;
46507;SDS011;32223;53.654;10.014;2023-02-15T16:10:43;30.30;;;18.35;;
46507;SDS011;32223;53.654;10.014;2023-02-15T16:13:02;31.63;;;18.48;;
46507;SDS011;32223;53.654;10.014;2023-02-15T16:18:10;30.90;;;18.25;;
46507;SDS011;32223;53.654;10.014;2023-02-15T16:20:41;27.45;;;16.48;;
46507;SDS011;32223;53.654;10.014;2023-02-15T16:25:55;32.53;;;18.73;;
46507;SDS011;32223;53.654;10.014;2023-02-15T16:28:25;32.50;;;19.63;;
46507;SDS011;32223;53.654;10.014;2023-02-15T16:31:10;35.85;;;19.77;;
46507;SDS011;32223;53.654;10.014;2023-02-15T16:33:38;31.40;;;19.60;;
46507;SDS011;32223;53.654;10.014;2023-02-15T16:36:05;36.53;;;20.27;;
46507;SDS011;32223;53.654;10.014;2023-02-15T16:41:07;32.00;;;19.95;;
46507;SDS011;32223;53.654;10.014;2023-02-15T16:43:35;34.60;;;19.10;;
46507;SDS011;32223;53.654;10.014;2023-02-15T16:46:06;33.78;;;19.48;;
46507;SDS011;32223;53.654;10.014;2023-02-15T16:48:38;34.50;;;19.38;;
46507;SDS011;32223;53.654;10.014;2023-02-15T16:51:06;34.63;;;20.92;;
46507;SDS011;32223;53.654;10.014;2023-02-15T16:53:33;37.30;;;21.23;;
46507;SDS011;32223;53.654;10.014;2023-02-15T16:56:01;36.70;;;21.15;;
46507;SDS011;32223;53.654;10.014;2023-02-15T16:58:36;35.72;;;19.85;;
46507;SDS011;32223;53.654;10.014;2023-02-15T17:01:07;35.03;;;20.20;;
46507;SDS011;32223;53.654;10.014;2023-02-15T17:03:36;35.35;;;21.08;;
46507;SDS011;32223;53.654;10.014;2023-02-15T17:06:02;38.25;;;21.73;;
46507;SDS011;32223;53.654;10.014;2023-02-15T17:13:29;34.30;;;19.85;;
46507;SDS011;32223;53.654;10.014;2023-02-15T17:18:24;31.02;;;19.55;;
46507;SDS011;32223;53.654;10.014;2023-02-15T17:21:10;33.55;;;20.27;;
46507;SDS011;32223;53.654;10.014;2023-02-15T17:23:45;33.80;;;19.83;;
46507;SDS011;32223;53.654;10.014;2023-02-15T17:26:14;33.38;;;19.40;;
46507;SDS011;32223;53.654;10.014;2023-02-15T17:28:45;33.38;;;19.65;;
46507;SDS011;32223;53.654;10.014;2023-02-15T17:31:17;28.88;;;18.65;;
46507;SDS011;32223;53.654;10.014;2023-02-15T17:33:44;35.13;;;20.10;;
46507;SDS011;32223;53.654;10.014;2023-02-15T17:36:14;33.63;;;19.27;;
46507;SDS011;32223;53.654;10.014;2023-02-15T17:41:28;32.80;;;20.00;;
46507;SDS011;32223;53.654;10.014;2023-02-15T17:43:59;31.45;;;16.98;;
46507;SDS011;32223;53.654;10.014;2023-02-15T17:46:26;28.27;;;16.77;;
46507;SDS011;32223;53.654;10.014;2023-02-15T17:48:56;34.85;;;18.58;;
46507;SDS011;32223;53.654;10.014;2023-02-15T17:51:23;29.02;;;18.08;;
46507;SDS011;32223;53.654;10.014;2023-02-15T17:53:48;33.38;;;18.65;;
46507;SDS011;32223;53.654;10.014;2023-02-15T17:56:33;42.17;;;24.45;;
46507;SDS011;32223;53.654;10.014;2023-02-15T17:58:59;50.78;;;26.20;;
46507;SDS011;32223;53.654;10.014;2023-02-15T18:01:25;38.15;;;21.48;;
46507;SDS011;32223;53.654;10.014;2023-02-15T18:04:10;34.08;;;18.70;;
46507;SDS011;32223;53.654;10.014;2023-02-15T18:06:55;36.15;;;20.33;;
46507;SDS011;32223;53.654;10.014;2023-02-15T18:09:39;35.03;;;20.10;;